sensor_id;sensor_type;location;lat;lon;timestamp;pressure;altitude;pressure_sealevel;temperature;humidity
45941;BME280;31858;46.008;8.978;2023-05-29T00:05:34;94540.84;;;14.42;100.00
45941;BME280;31858;46.008;8.978;2023-05-29T00:15:36;94531.13;;;14.62;100.00
45941;BME280;31858;46.008;8.978;2023-05-29T00:25:39;94517.09;;;14.85;100.00
45941;BME280;31858;46.008;8.978;2023-05-29T00:35:41;94502.09;;;14.91;100.00
45941;BME280;31858;46.008;8.978;2023-05-29T00:45:44;94491.00;;;14.52;100.00
45941;BME280;31858;46.008;8.978;2023-05-29T00:55:45;94494.81;;;13.33;100.00
45941;BME280;31858;46.008;8.978;2023-05-29T01:05:48;94508.66;;;13.03;100.00
45941;BME280;31858;46.008;8.978;2023-05-29T01:15:54;94499.47;;;13.18;100.00
45941;BME280;31858;46.008;8.978;2023-05-29T01:26:11;94492.97;;;13.19;100.00
45941;BME280;31858;46.008;8.978;2023-05-29T01:36:17;94509.38;;;13.25;100.00
45941;BME280;31858;46.008;8.978;2023-05-29T01:46:19;94507.88;;;13.20;100.00
45941;BME280;31858;46.008;8.978;2023-05-29T01:56:23;94501.84;;;12.95;100.00
45941;BME280;31858;46.008;8.978;2023-05-29T02:06:26;94489.09;;;13.31;100.00
45941;BME280;31858;46.008;8.978;2023-05-29T02:16:29;94499.31;;;13.54;100.00
45941;BME280;31858;46.008;8.978;2023-05-29T02:26:33;94500.13;;;13.47;100.00
45941;BME280;31858;46.008;8.978;2023-05-29T02:36:38;94497.41;;;13.54;100.00
45941;BME280;31858;46.008;8.978;2023-05-29T02:46:40;94497.78;;;13.56;100.00
45941;BME280;31858;46.008;8.978;2023-05-29T02:56:43;94493.94;;;13.57;100.00
45941;BME280;31858;46.008;8.978;2023-05-29T03:06:44;94480.91;;;13.63;100.00
45941;BME280;31858;46.008;8.978;2023-05-29T03:16:48;94483.66;;;13.52;100.00
45941;BME280;31858;46.008;8.978;2023-05-29T03:26:50;94485.28;;;13.32;100.00
45941;BME280;31858;46.008;8.978;2023-05-29T03:36:53;94484.88;;;13.33;100.00
45941;BME280;31858;46.008;8.978;2023-05-29T03:46:55;94479.56;;;13.23;100.00
45941;BME280;31858;46.008;8.978;2023-05-29T03:56:58;94469.66;;;13.13;100.00
45941;BME280;31858;46.008;8.978;2023-05-29T04:07:00;94472.69;;;13.25;100.00
45941;BME280;31858;46.008;8.978;2023-05-29T04:17:03;94474.25;;;13.19;100.00
45941;BME280;31858;46.008;8.978;2023-05-29T04:27:04;94484.16;;;13.26;100.00
45941;BME280;31858;46.008;8.978;2023-05-29T04:37:07;94504.03;;;13.28;100.00
45941;BME280;31858;46.008;8.978;2023-05-29T04:47:09;94514.69;;;13.35;100.00
45941;BME280;31858;46.008;8.978;2023-05-29T04:57:14;94510.34;;;13.66;100.00
45941;BME280;31858;46.008;8.978;2023-05-29T05:07:16;94514.66;;;13.43;100.00
45941;BME280;31858;46.008;8.978;2023-05-29T05:17:18;94535.34;;;13.31;100.00
45941;BME280;31858;46.008;8.978;2023-05-29T05:27:20;94531.50;;;13.43;100.00
45941;BME280;31858;46.008;8.978;2023-05-29T05:37:23;94551.00;;;13.36;100.00
45941;BME280;31858;46.008;8.978;2023-05-29T05:47:25;94560.19;;;13.32;100.00
45941;BME280;31858;46.008;8.978;2023-05-29T05:57:29;94568.97;;;13.39;100.00
45941;BME280;31858;46.008;8.978;2023-05-29T06:07:32;94576.22;;;13.46;100.00
45941;BME280;31858;46.008;8.978;2023-05-29T06:17:35;94583.84;;;13.51;100.00
45941;BME280;31858;46.008;8.978;2023-05-29T06:27:37;94583.78;;;13.65;100.00
45941;BME280;31858;46.008;8.978;2023-05-29T06:37:40;94592.50;;;13.84;100.00
45941;BME280;31858;46.008;8.978;2023-05-29T06:47:41;94604.66;;;14.02;100.00
45941;BME280;31858;46.008;8.978;2023-05-29T06:57:44;94616.47;;;14.12;100.00
45941;BME280;31858;46.008;8.978;2023-05-29T07:07:46;94626.03;;;14.17;100.00
45941;BME280;31858;46.008;8.978;2023-05-29T07:17:49;94634.03;;;14.20;100.00
45941;BME280;31858;46.008;8.978;2023-05-29T07:27:51;94653.06;;;14.36;100.00
45941;BME280;31858;46.008;8.978;2023-05-29T07:37:54;94650.75;;;14.46;100.00
45941;BME280;31858;46.008;8.978;2023-05-29T07:47:55;94646.50;;;14.52;100.00
45941;BME280;31858;46.008;8.978;2023-05-29T07:57:58;94656.38;;;14.62;100.00
45941;BME280;31858;46.008;8.978;2023-05-29T08:08:00;94659.34;;;14.78;100.00
45941;BME280;31858;46.008;8.978;2023-05-29T08:18:03;94658.50;;;14.88;100.00
45941;BME280;31858;46.008;8.978;2023-05-29T08:28:05;94641.16;;;15.00;100.00
45941;BME280;31858;46.008;8.978;2023-05-29T08:38:08;94639.72;;;15.33;100.00
45941;BME280;31858;46.008;8.978;2023-05-29T08:48:11;94642.63;;;15.49;100.00
45941;BME280;31858;46.008;8.978;2023-05-29T08:58:14;94634.69;;;15.73;100.00
45941;BME280;31858;46.008;8.978;2023-05-29T09:08:16;94624.13;;;15.89;100.00
45941;BME280;31858;46.008;8.978;2023-05-29T09:18:19;94626.59;;;16.07;100.00
45941;BME280;31858;46.008;8.978;2023-05-29T09:28:21;94615.34;;;16.15;100.00
45941;BME280;31858;46.008;8.978;2023-05-29T09:38:29;94611.91;;;16.42;100.00
45941;BME280;31858;46.008;8.978;2023-05-29T09:48:31;94609.31;;;16.65;100.00
45941;BME280;31858;46.008;8.978;2023-05-29T09:58:35;94587.50;;;16.83;100.00
45941;BME280;31858;46.008;8.978;2023-05-29T10:08:42;94581.25;;;17.09;100.00
45941;BME280;31858;46.008;8.978;2023-05-29T10:18:53;94582.59;;;17.21;100.00
45941;BME280;31858;46.008;8.978;2023-05-29T10:29:01;94580.47;;;17.32;100.00
45941;BME280;31858;46.008;8.978;2023-05-29T10:39:05;94567.56;;;17.43;100.00
45941;BME280;31858;46.008;8.978;2023-05-29T10:49:15;94562.13;;;17.67;100.00
45941;BME280;31858;46.008;8.978;2023-05-29T10:59:18;94548.09;;;17.75;100.00
45941;BME280;31858;46.008;8.978;2023-05-29T11:09:28;94552.56;;;18.02;100.00
45941;BME280;31858;46.008;8.978;2023-05-29T11:19:31;94537.41;;;18.24;100.00
45941;BME280;31858;46.008;8.978;2023-05-29T11:29:33;94532.03;;;18.40;100.00
45941;BME280;31858;46.008;8.978;2023-05-29T11:39:37;94529.00;;;18.54;100.00
45941;BME280;31858;46.008;8.978;2023-05-29T11:49:38;94523.50;;;18.58;100.00
45941;BME280;31858;46.008;8.978;2023-05-29T11:59:42;94514.59;;;18.77;100.00
45941;BME280;31858;46.008;8.978;2023-05-29T12:09:43;94503.66;;;18.97;100.00
45941;BME280;31858;46.008;8.978;2023-05-29T12:19:46;94509.41;;;19.28;100.00
45941;BME280;31858;46.008;8.978;2023-05-29T12:29:49;94507.97;;;19.52;100.00
45941;BME280;31858;46.008;8.978;2023-05-29T12:40:10;94500.94;;;19.55;100.00
45941;BME280;31858;46.008;8.978;2023-05-29T12:50:20;94491.47;;;19.76;100.00
45941;BME280;31858;46.008;8.978;2023-05-29T13:00:23;94477.00;;;20.08;100.00
45941;BME280;31858;46.008;8.978;2023-05-29T13:10:26;94469.84;;;20.27;100.00
45941;BME280;31858;46.008;8.978;2023-05-29T13:20:29;94462.56;;;20.36;100.00
45941;BME280;31858;46.008;8.978;2023-05-29T13:30:32;94447.31;;;20.42;100.00
45941;BME280;31858;46.008;8.978;2023-05-29T13:40:35;94448.25;;;20.61;100.00
45941;BME280;31858;46.008;8.978;2023-05-29T13:50:36;94438.38;;;20.89;100.00
45941;BME280;31858;46.008;8.978;2023-05-29T14:00:39;94439.97;;;21.21;100.00
45941;BME280;31858;46.008;8.978;2023-05-29T14:10:41;94422.03;;;21.36;100.00
45941;BME280;31858;46.008;8.978;2023-05-29T14:20:44;94411.03;;;21.62;100.00
45941;BME280;31858;46.008;8.978;2023-05-29T14:30:48;94403.81;;;21.68;91.53
45941;BME280;31858;46.008;8.978;2023-05-29T14:40:51;94400.72;;;21.78;94.25
45941;BME280;31858;46.008;8.978;2023-05-29T14:50:52;94390.53;;;22.01;93.95
45941;BME280;31858;46.008;8.978;2023-05-29T15:00:55;94397.91;;;22.00;87.72
45941;BME280;31858;46.008;8.978;2023-05-29T15:10:58;94396.00;;;22.10;79.35
45941;BME280;31858;46.008;8.978;2023-05-29T15:21:01;94395.53;;;22.11;97.17
45941;BME280;31858;46.008;8.978;2023-05-29T15:31:03;94392.84;;;22.21;93.91
45941;BME280;31858;46.008;8.978;2023-05-29T15:41:06;94390.59;;;22.28;96.22
45941;BME280;31858;46.008;8.978;2023-05-29T15:51:08;94378.84;;;22.31;100.00
45941;BME280;31858;46.008;8.978;2023-05-29T16:01:11;94383.81;;;22.33;98.84
45941;BME280;31858;46.008;8.978;2023-05-29T16:11:12;94392.69;;;22.24;100.00
45941;BME280;31858;46.008;8.978;2023-05-29T16:21:15;94399.75;;;22.12;100.00
45941;BME280;31858;46.008;8.978;2023-05-29T16:31:17;94399.31;;;22.14;100.00
45941;BME280;31858;46.008;8.978;2023-05-29T16:41:20;94396.84;;;21.58;100.00
45941;BME280;31858;46.008;8.978;2023-05-29T16:51:22;94419.09;;;21.22;100.00
45941;BME280;31858;46.008;8.978;2023-05-29T17:01:25;94436.94;;;20.97;100.00
45941;BME280;31858;46.008;8.978;2023-05-29T17:11:26;94423.22;;;20.70;100.00
45941;BME280;31858;46.008;8.978;2023-05-29T17:21:29;94411.06;;;20.40;100.00
45941;BME280;31858;46.008;8.978;2023-05-29T17:31:31;94414.88;;;20.17;100.00
45941;BME280;31858;46.008;8.978;2023-05-29T17:41:34;94417.06;;;20.09;100.00
45941;BME280;31858;46.008;8.978;2023-05-29T17:51:36;94421.59;;;20.12;100.00
45941;BME280;31858;46.008;8.978;2023-05-29T18:01:39;94425.28;;;20.06;100.00
45941;BME280;31858;46.008;8.978;2023-05-29T18:11:41;94443.13;;;19.91;100.00
45941;BME280;31858;46.008;8.978;2023-05-29T18:21:45;94443.88;;;20.04;100.00
45941;BME280;31858;46.008;8.978;2023-05-29T18:31:47;94457.09;;;19.89;100.00
45941;BME280;31858;46.008;8.978;2023-05-29T18:41:50;94463.75;;;19.59;100.00
45941;BME280;31858;46.008;8.978;2023-05-29T18:51:51;94461.78;;;19.34;100.00
45941;BME280;31858;46.008;8.978;2023-05-29T19:01:55;94477.66;;;19.32;100.00
45941;BME280;31858;46.008;8.978;2023-05-29T19:11:56;94484.53;;;18.92;100.00
45941;BME280;31858;46.008;8.978;2023-05-29T19:21:59;94482.81;;;18.98;100.00
45941;BME280;31858;46.008;8.978;2023-05-29T19:32:01;94492.22;;;18.77;100.00
45941;BME280;31858;46.008;8.978;2023-05-29T19:42:05;94502.47;;;18.98;100.00
45941;BME280;31858;46.008;8.978;2023-05-29T19:52:07;94511.47;;;18.63;100.00
45941;BME280;31858;46.008;8.978;2023-05-29T20:02:11;94526.63;;;18.56;100.00
45941;BME280;31858;46.008;8.978;2023-05-29T20:12:12;94545.38;;;18.64;100.00
45941;BME280;31858;46.008;8.978;2023-05-29T20:22:15;94544.75;;;18.56;100.00
45941;BME280;31858;46.008;8.978;2023-05-29T20:32:17;94543.75;;;18.50;100.00
45941;BME280;31858;46.008;8.978;2023-05-29T20:42:20;94562.13;;;18.39;100.00
45941;BME280;31858;46.008;8.978;2023-05-29T20:52:21;94571.88;;;18.16;100.00
45941;BME280;31858;46.008;8.978;2023-05-29T21:02:24;94573.91;;;18.12;100.00
45941;BME280;31858;46.008;8.978;2023-05-29T21:12:26;94574.59;;;18.16;100.00
45941;BME280;31858;46.008;8.978;2023-05-29T21:22:29;94575.22;;;18.04;100.00
45941;BME280;31858;46.008;8.978;2023-05-29T21:32:31;94578.19;;;18.10;100.00
45941;BME280;31858;46.008;8.978;2023-05-29T21:42:33;94570.72;;;18.17;100.00
45941;BME280;31858;46.008;8.978;2023-05-29T21:52:35;94579.63;;;18.14;100.00
45941;BME280;31858;46.008;8.978;2023-05-29T22:02:38;94581.34;;;17.88;100.00
45941;BME280;31858;46.008;8.978;2023-05-29T22:12:40;94576.56;;;17.96;100.00
45941;BME280;31858;46.008;8.978;2023-05-29T22:22:43;94563.22;;;17.89;100.00
45941;BME280;31858;46.008;8.978;2023-05-29T22:32:45;94571.38;;;17.85;100.00
45941;BME280;31858;46.008;8.978;2023-05-29T22:42:48;94559.50;;;17.83;100.00
45941;BME280;31858;46.008;8.978;2023-05-29T22:52:50;94554.81;;;17.67;100.00
45941;BME280;31858;46.008;8.978;2023-05-29T23:02:53;94555.34;;;17.78;100.00
45941;BME280;31858;46.008;8.978;2023-05-29T23:12:55;94554.31;;;17.52;100.00
45941;BME280;31858;46.008;8.978;2023-05-29T23:22:58;94565.81;;;17.13;100.00
45941;BME280;31858;46.008;8.978;2023-05-29T23:33:00;94563.09;;;16.70;100.00
45941;BME280;31858;46.008;8.978;2023-05-29T23:43:03;94564.97;;;16.46;100.00
45941;BME280;31858;46.008;8.978;2023-05-29T23:53:05;94570.94;;;16.34;100.00
